createdAt,value
2018-07-28T13:47:40.791Z,11.12
2018-07-28T13:50:09.275Z,9.38
2018-07-28T13:52:37.884Z,9.60
2018-07-28T13:55:06.333Z,12.25
2018-07-28T13:57:34.786Z,10.23
2018-07-28T14:00:03.749Z,10.55
2018-07-28T14:02:32.741Z,9.45
2018-07-28T14:05:01.795Z,9.68
2018-07-28T14:07:30.182Z,13.98
2018-07-28T14:09:58.560Z,9.78
2018-07-28T14:12:26.921Z,9.85
2018-07-28T14:14:55.298Z,9.28
2018-07-28T14:17:24.005Z,13.08
2018-07-28T14:19:52.457Z,8.60
2018-07-28T14:22:20.897Z,8.93
2018-07-28T14:24:49.328Z,8.65
2018-07-28T14:27:17.950Z,8.53
2018-07-28T14:29:46.305Z,8.35
2018-07-28T14:32:14.694Z,10.48
2018-07-28T14:34:43.027Z,8.35
2018-07-28T14:37:11.440Z,7.65
2018-07-28T14:39:39.804Z,8.83
2018-07-28T14:42:08.723Z,7.15
2018-07-28T14:44:37.083Z,8.73
2018-07-28T14:47:06.296Z,6.87
2018-07-28T14:49:34.382Z,6.35
2018-07-28T14:52:02.768Z,6.53
2018-07-28T14:54:31.109Z,7.95
2018-07-28T14:56:59.498Z,5.92
2018-07-28T14:59:27.889Z,6.20
2018-07-28T15:01:56.848Z,6.30
2018-07-28T15:04:25.274Z,6.78
2018-07-28T15:06:53.644Z,6.15
2018-07-28T15:09:22.056Z,7.00
2018-07-28T15:11:50.444Z,5.95
2018-07-28T15:14:18.842Z,6.47
2018-07-28T15:16:47.246Z,8.28
2018-07-28T15:19:15.764Z,7.37
2018-07-28T15:21:44.171Z,7.15
2018-07-28T15:24:13.139Z,7.00
2018-07-28T15:26:41.596Z,7.22
2018-07-28T15:29:10.054Z,7.20
2018-07-28T15:31:38.432Z,6.60
2018-07-28T15:34:06.841Z,6.15
2018-07-28T15:36:35.269Z,7.00
2018-07-28T15:39:05.262Z,6.92
2018-07-28T15:41:33.655Z,8.48
2018-07-28T15:44:02.013Z,7.17
2018-07-28T15:46:30.420Z,8.25
2018-07-28T15:48:59.146Z,7.08
2018-07-28T15:51:27.532Z,6.95
2018-07-28T15:53:55.903Z,8.25
2018-07-28T15:56:24.285Z,9.18
2018-07-28T15:58:52.920Z,8.30
2018-07-28T16:01:21.338Z,7.90
2018-07-28T16:03:49.693Z,8.88
2018-07-28T16:06:18.057Z,9.68
2018-07-28T16:08:46.437Z,8.63
2018-07-28T16:11:15.135Z,8.58
2018-07-28T16:13:43.611Z,7.83
2018-07-28T16:16:11.933Z,9.78
2018-07-28T16:18:40.316Z,7.95
2018-07-28T16:21:08.635Z,10.48
2018-07-28T16:23:37.031Z,8.30
2018-07-28T16:26:06.305Z,7.45
2018-07-28T16:28:34.661Z,8.38
2018-07-28T16:31:03.034Z,8.23
2018-07-28T16:33:31.136Z,8.53
2018-07-28T16:35:59.964Z,8.85
2018-07-28T16:38:28.421Z,16.17
2018-07-28T16:40:57.326Z,9.93
2018-07-28T16:43:25.751Z,11.97
2018-07-28T16:45:55.025Z,10.48
2018-07-28T16:48:23.657Z,7.40
2018-07-28T16:50:52.140Z,8.58
2018-07-28T16:53:20.942Z,8.38
2018-07-28T16:55:50.067Z,11.40
2018-07-28T16:58:18.454Z,9.78
2018-07-28T17:00:46.895Z,8.18
2018-07-28T17:03:15.348Z,9.45
2018-07-28T17:05:43.766Z,8.75
2018-07-28T17:08:12.177Z,10.55
2018-07-28T17:10:40.521Z,8.23
2018-07-28T17:13:08.882Z,7.85
2018-07-28T17:15:37.295Z,7.83
2018-07-28T17:18:05.796Z,8.30
2018-07-28T17:20:34.264Z,8.78
2018-07-28T17:23:02.644Z,7.85
2018-07-28T17:25:31.082Z,8.65
2018-07-28T17:28:00.647Z,8.30
2018-07-28T17:30:29.221Z,8.73
2018-07-28T17:32:57.612Z,9.50
2018-07-28T17:35:25.936Z,8.78
2018-07-28T17:37:55.253Z,8.13
2018-07-28T17:40:23.642Z,8.03
2018-07-28T17:42:52.034Z,9.18
2018-07-28T17:45:20.383Z,8.90
2018-07-28T17:47:48.800Z,9.00
2018-07-28T17:50:17.847Z,8.30
2018-07-28T17:52:46.329Z,8.10
2018-07-28T17:55:14.691Z,8.18
2018-07-28T17:57:43.084Z,8.35
2018-07-28T18:00:12.536Z,8.33
2018-07-28T18:02:41.458Z,7.80
2018-07-28T18:05:09.846Z,9.68
2018-07-28T18:07:38.226Z,7.78
2018-07-28T18:10:06.604Z,8.98
2018-07-28T18:12:34.975Z,8.33
2018-07-28T18:15:03.359Z,9.40
2018-07-28T18:17:32.135Z,10.93
2018-07-28T18:20:05.803Z,9.73
2018-07-28T18:22:38.735Z,10.30
2018-07-28T18:25:07.329Z,10.05
2018-07-28T18:27:35.722Z,11.78
2018-07-28T18:30:04.632Z,11.43
2018-07-28T18:32:33.056Z,12.00
2018-07-28T18:35:01.405Z,14.00
2018-07-28T18:37:29.928Z,17.02
2018-07-28T18:39:58.355Z,18.05
2018-07-28T18:42:26.737Z,15.30
2018-07-28T18:44:55.124Z,16.73
2018-07-28T18:47:23.560Z,10.50
2018-07-28T18:49:52.676Z,5.62
2018-07-28T18:52:21.246Z,6.37
2018-07-28T18:54:50.271Z,9.70
2018-07-28T18:59:59.914Z,18.07
2018-07-28T19:02:28.417Z,11.63
2018-07-28T19:04:56.910Z,9.10
2018-07-28T19:07:25.798Z,9.98
2018-07-28T19:09:54.174Z,9.70
2018-07-28T19:12:28.079Z,10.88
2018-07-28T19:14:56.515Z,8.00
2018-07-28T19:17:28.981Z,5.85
2018-07-28T19:19:57.407Z,10.60
2018-07-28T19:22:31.445Z,8.55
2018-07-28T19:24:59.862Z,5.47
2018-07-28T19:27:28.861Z,6.33
2018-07-28T19:39:43.408Z,4.40
2018-07-28T19:42:17.262Z,4.72
2018-07-28T19:45:41.799Z,9.03
2018-07-28T19:48:10.673Z,6.83
2018-07-28T19:50:39.087Z,7.55
2018-07-28T19:53:07.450Z,6.60
2018-07-28T19:55:35.851Z,6.00
2018-07-28T19:58:04.361Z,5.58
2018-07-28T20:00:32.764Z,6.65
2018-07-28T20:03:01.212Z,5.65
2018-07-28T20:05:34.343Z,5.87
2018-07-28T20:08:07.973Z,5.20
2018-07-28T20:20:22.177Z,6.78
2018-07-28T20:22:50.553Z,6.15
2018-07-28T20:25:18.965Z,7.90
2018-07-28T20:27:47.939Z,6.67
2018-07-28T20:30:16.301Z,4.97
2018-07-28T20:32:45.306Z,5.65
2018-07-28T20:35:13.773Z,5.87
2018-07-28T20:37:42.466Z,5.53
2018-07-28T20:40:10.932Z,5.00
2018-07-28T20:42:39.348Z,5.05
2018-07-28T20:45:07.831Z,4.83
2018-07-28T20:47:36.804Z,5.55
2018-07-28T20:50:05.217Z,5.40
2018-07-28T20:52:33.643Z,7.22
2018-07-28T20:55:02.043Z,6.45
2018-07-28T20:57:30.476Z,7.30
2018-07-28T20:59:59.000Z,5.50
2018-07-28T21:02:27.423Z,6.28
2018-07-28T21:04:57.053Z,9.35
2018-07-28T21:07:25.453Z,4.97
2018-07-28T21:09:53.834Z,6.72
2018-07-28T21:12:22.741Z,7.03
2018-07-28T21:14:57.416Z,4.42
2018-07-28T21:17:25.906Z,5.55
2018-07-28T21:19:54.328Z,6.22
2018-07-28T21:22:22.721Z,6.65
2018-07-28T21:24:54.043Z,5.97
2018-07-28T21:27:23.035Z,6.20
2018-07-28T21:29:51.651Z,6.10
2018-07-28T21:32:20.113Z,7.65
2018-07-28T21:34:48.537Z,6.97
2018-07-28T21:37:17.657Z,8.05
2018-07-28T21:39:46.123Z,7.90
2018-07-28T21:42:14.493Z,5.67
2018-07-28T21:44:42.904Z,5.47
2018-07-28T21:47:11.316Z,6.62
2018-07-28T21:49:39.699Z,7.05
2018-07-28T21:52:08.091Z,7.47
2018-07-28T21:54:36.497Z,6.80
2018-07-28T21:57:05.721Z,7.17
2018-07-28T21:59:38.058Z,6.87
2018-07-28T22:02:06.785Z,6.97
2018-07-28T22:04:37.257Z,6.83
2018-07-28T22:07:05.614Z,8.23
2018-07-28T22:09:33.982Z,7.58
2018-07-28T22:12:02.371Z,6.95
2018-07-28T22:14:30.936Z,7.10
2018-07-28T22:16:59.357Z,7.45
2018-07-28T22:19:27.806Z,8.85
2018-07-28T22:21:56.181Z,7.90
2018-07-28T22:24:24.661Z,7.70
2018-07-28T22:26:53.077Z,8.83
2018-07-28T22:29:21.473Z,8.38
2018-07-28T22:31:50.586Z,7.72
2018-07-28T22:34:19.224Z,9.45
2018-07-28T22:36:47.608Z,8.53
2018-07-28T22:39:15.979Z,8.18
2018-07-28T22:41:44.345Z,8.43
2018-07-28T22:44:12.691Z,9.18
2018-07-28T22:46:41.067Z,8.05
2018-07-28T22:49:09.733Z,7.50
2018-07-28T22:51:38.091Z,7.97
2018-07-28T22:54:06.507Z,7.60
2018-07-28T22:56:34.849Z,9.35
2018-07-28T22:59:03.198Z,9.03
2018-07-28T23:01:31.610Z,7.00
2018-07-28T23:03:59.946Z,7.67
2018-07-28T23:06:28.309Z,7.85
2018-07-28T23:08:56.817Z,7.97
2018-07-28T23:11:25.474Z,8.28
2018-07-28T23:13:53.803Z,9.48
2018-07-28T23:16:26.762Z,8.50
2018-07-28T23:18:55.169Z,8.88
2018-07-28T23:21:23.533Z,8.08
2018-07-28T23:23:51.870Z,8.68
2018-07-28T23:26:20.247Z,9.95
2018-07-28T23:28:51.606Z,7.42
2018-07-28T23:31:20.089Z,8.83
2018-07-28T23:33:48.460Z,9.60
2018-07-28T23:36:18.239Z,9.18
2018-07-28T23:38:46.690Z,8.75
2018-07-28T23:41:15.147Z,8.98
2018-07-28T23:43:43.546Z,9.85
2018-07-28T23:46:11.962Z,8.78
2018-07-28T23:48:40.314Z,9.20
2018-07-28T23:51:08.751Z,9.45
2018-07-28T23:53:37.090Z,8.23
2018-07-28T23:56:05.510Z,8.20
2018-07-28T23:58:33.876Z,9.33
